Time,TemperatureF,DewpointF,PressureIn,WindDirection,WindDirectionDegrees,WindSpeedMPH,WindSpeedGustMPH,Humidity,HourlyPrecipIn,Conditions,Clouds,dailyrainin,SoftwareType,DateUTC
2013-03-19 00:03:00,63.0,61.0,30.03,North,9,0.0,-999.0,93,-99.99,,,-99.99,,2013-03-19 10:03:00,
2013-03-19 00:12:00,63.0,61.0,30.03,North,9,0.0,-999.0,93,-99.99,,,-99.99,,2013-03-19 10:12:00,
2013-03-19 00:22:00,63.0,61.0,30.02,North,9,0.0,-999.0,93,-99.99,,,-99.99,,2013-03-19 10:22:00,
2013-03-19 00:32:00,63.0,61.0,30.02,North,9,0.0,-999.0,93,-99.99,,,-99.99,,2013-03-19 10:32:00,
2013-03-19 00:42:00,63.0,61.0,30.02,North,9,0.0,-999.0,93,-99.99,,,-99.99,,2013-03-19 10:42:00,
2013-03-19 00:53:00,63.0,61.0,30.01,North,9,0.0,-999.0,92,-99.99,,,-99.99,,2013-03-19 10:53:00,
2013-03-19 01:02:00,62.0,60.0,30.01,North,9,0.0,-999.0,92,-99.99,,,-99.99,,2013-03-19 11:02:00,
2013-03-19 01:11:00,62.0,60.0,30.01,North,9,0.0,-999.0,92,-99.99,,,-99.99,,2013-03-19 11:11:00,
2013-03-19 01:22:00,62.0,60.0,30.01,North,9,0.0,-999.0,92,-99.99,,,-99.99,,2013-03-19 11:22:00,
2013-03-19 01:32:00,61.0,59.0,30.00,North,9,0.0,-999.0,92,-99.99,,,-99.99,,2013-03-19 11:32:00,
2013-03-19 01:42:00,61.0,59.0,30.00,North,9,0.0,-999.0,92,-99.99,,,-99.99,,2013-03-19 11:42:00,
2013-03-19 01:52:00,60.0,58.0,29.99,North,9,0.0,-999.0,93,-99.99,,,-99.99,,2013-03-19 11:52:00,
2013-03-19 02:02:00,60.0,58.0,29.99,North,9,0.0,-999.0,93,-99.99,,,-99.99,,2013-03-19 12:02:00,
2013-03-19 02:12:00,60.0,58.0,29.99,North,9,0.0,-999.0,93,-99.99,,,-99.99,,2013-03-19 12:12:00,
2013-03-19 02:22:00,60.0,58.0,29.99,North,9,0.0,-999.0,93,-99.99,,,-99.99,,2013-03-19 12:22:00,
2013-03-19 02:32:00,60.0,58.0,29.98,North,9,0.0,-999.0,93,-99.99,,,-99.99,,2013-03-19 12:32:00,
2013-03-19 02:42:00,60.0,58.0,29.98,North,9,0.0,-999.0,93,-99.99,,,-99.99,,2013-03-19 12:42:00,
2013-03-19 02:52:00,60.0,58.0,29.98,North,9,0.0,-999.0,93,-99.99,,,-99.99,,2013-03-19 12:52:00,
2013-03-19 03:02:00,60.0,58.0,29.98,North,9,0.0,-999.0,93,-99.99,,,-99.99,,2013-03-19 13:02:00,
2013-03-19 03:11:00,60.0,58.0,29.98,North,9,0.0,-999.0,93,-99.99,,,-99.99,,2013-03-19 13:11:00,
2013-03-19 03:22:00,59.0,57.0,29.98,North,9,0.0,-999.0,93,-99.99,,,-99.99,,2013-03-19 13:22:00,
2013-03-19 03:32:00,59.0,57.0,29.97,North,9,0.0,-999.0,93,-99.99,,,-99.99,,2013-03-19 13:32:00,
2013-03-19 03:42:00,59.0,57.0,29.97,North,9,0.0,-999.0,93,-99.99,,,-99.99,,2013-03-19 13:42:00,
2013-03-19 03:52:00,59.0,57.0,29.98,North,9,0.0,-999.0,93,-99.99,,,-99.99,,2013-03-19 13:52:00,
2013-03-19 04:01:00,59.0,57.0,29.98,North,9,0.0,-999.0,94,-99.99,,,-99.99,,2013-03-19 14:01:00,
2013-03-19 04:11:00,59.0,57.0,29.98,North,9,0.0,-999.0,94,-99.99,,,-99.99,,2013-03-19 14:11:00,
2013-03-19 04:22:00,59.0,57.0,29.97,North,9,0.0,-999.0,94,-99.99,,,-99.99,,2013-03-19 14:22:00,
2013-03-19 04:31:00,59.0,57.0,29.97,North,9,0.0,-999.0,94,-99.99,,,-99.99,,2013-03-19 14:31:00,
2013-03-19 04:41:00,59.0,57.0,29.97,North,9,0.0,-999.0,94,-99.99,,,-99.99,,2013-03-19 14:41:00,
2013-03-19 04:52:00,59.0,57.0,29.97,North,9,0.0,-999.0,93,-99.99,,,-99.99,,2013-03-19 14:52:00,
2013-03-19 05:01:00,59.0,57.0,29.97,North,9,0.0,-999.0,94,-99.99,,,-99.99,,2013-03-19 15:01:00,
2013-03-19 05:12:00,59.0,57.0,29.97,North,9,0.0,-999.0,94,-99.99,,,-99.99,,2013-03-19 15:12:00,
2013-03-19 05:22:00,59.0,57.0,29.98,North,9,0.0,-999.0,93,-99.99,,,-99.99,,2013-03-19 15:22:00,
2013-03-19 05:33:00,59.0,57.0,29.98,North,9,0.0,-999.0,94,-99.99,,,-99.99,,2013-03-19 15:33:00,
2013-03-19 05:43:00,59.0,57.0,29.98,North,9,0.0,-999.0,94,-99.99,,,-99.99,,2013-03-19 15:43:00,
2013-03-19 05:53:00,59.0,57.0,29.99,North,9,0.0,-999.0,94,-99.99,,,-99.99,,2013-03-19 15:53:00,
2013-03-19 06:03:00,60.0,58.0,29.99,North,9,0.0,-999.0,94,-99.99,,,-99.99,,2013-03-19 16:03:00,
2013-03-19 06:12:00,60.0,58.0,29.99,North,9,0.0,-999.0,94,-99.99,,,-99.99,,2013-03-19 16:12:00,
2013-03-19 06:23:00,60.0,58.0,30.00,North,9,0.0,-999.0,94,-99.99,,,-99.99,,2013-03-19 16:23:00,
2013-03-19 06:33:00,60.0,58.0,29.99,North,9,0.0,-999.0,93,-99.99,,,-99.99,,2013-03-19 16:33:00,
2013-03-19 06:43:00,60.0,58.0,29.99,North,9,0.0,-999.0,93,-99.99,,,-99.99,,2013-03-19 16:43:00,
2013-03-19 06:54:00,60.0,58.0,30.00,North,9,0.0,-999.0,93,-99.99,,,-99.99,,2013-03-19 16:54:00,
2013-03-19 07:02:00,60.0,58.0,30.01,North,9,0.0,-999.0,93,-99.99,,,-99.99,,2013-03-19 17:02:00,
2013-03-19 07:13:00,60.0,58.0,30.01,North,9,0.0,-999.0,93,-99.99,,,-99.99,,2013-03-19 17:13:00,
2013-03-19 07:23:00,60.0,58.0,30.01,North,9,0.0,-999.0,93,-99.99,,,-99.99,,2013-03-19 17:23:00,
2013-03-19 07:34:00,60.0,58.0,30.01,North,9,0.0,-999.0,93,-99.99,,,-99.99,,2013-03-19 17:34:00,
2013-03-19 07:43:00,60.0,58.0,30.01,North,9,0.0,-999.0,93,-99.99,,,-99.99,,2013-03-19 17:43:00,
2013-03-19 07:53:00,63.0,61.0,30.02,North,9,0.0,-999.0,92,-99.99,,,-99.99,,2013-03-19 17:53:00,
2013-03-19 08:02:00,64.0,61.0,30.02,North,9,0.0,-999.0,90,-99.99,,,-99.99,,2013-03-19 18:02:00,
2013-03-19 08:13:00,64.0,61.0,30.02,North,9,0.0,-999.0,90,-99.99,,,-99.99,,2013-03-19 18:13:00,
2013-03-19 08:22:00,67.0,64.0,30.02,North,9,0.0,-999.0,89,-99.99,,,-99.99,,2013-03-19 18:22:00,
2013-03-19 08:33:00,69.0,64.0,30.03,North,9,0.0,-999.0,84,-99.99,,,-99.99,,2013-03-19 18:33:00,
2013-03-19 08:42:00,69.0,64.0,30.03,North,9,0.0,-999.0,84,-99.99,,,-99.99,,2013-03-19 18:42:00,
2013-03-19 08:53:00,70.0,65.0,30.03,North,9,0.0,-999.0,84,-99.99,,,-99.99,,2013-03-19 18:53:00,
2013-03-19 09:02:00,74.0,65.0,30.03,NW,308,0.0,-999.0,74,-99.99,,,-99.99,,2013-03-19 19:02:00,
2013-03-19 09:12:00,74.0,65.0,30.03,NW,308,0.0,-999.0,74,-99.99,,,-99.99,,2013-03-19 19:12:00,
2013-03-19 09:21:00,73.0,64.0,30.04,NW,308,0.0,-999.0,73,-99.99,,,-99.99,,2013-03-19 19:21:00,
2013-03-19 09:32:00,73.0,64.0,30.04,NW,308,0.0,-999.0,73,-99.99,,,-99.99,,2013-03-19 19:32:00,
2013-03-19 09:42:00,73.0,64.0,30.04,NW,308,0.0,-999.0,73,-99.99,,,-99.99,,2013-03-19 19:42:00,
2013-03-19 09:53:00,73.0,65.0,30.03,NW,323,1.0,-999.0,76,-99.99,,,-99.99,,2013-03-19 19:53:00,
2013-03-19 10:02:00,74.0,64.0,30.03,NNE,30,1.0,-999.0,72,-99.99,,,-99.99,,2013-03-19 20:02:00,
2013-03-19 10:11:00,74.0,65.0,30.02,NE,44,1.0,-999.0,74,-99.99,,,-99.99,,2013-03-19 20:11:00,
2013-03-19 10:22:00,74.0,65.0,30.02,NE,44,1.0,-999.0,74,-99.99,,,-99.99,,2013-03-19 20:22:00,
2013-03-19 10:32:00,74.0,66.0,30.02,North,5,1.0,-999.0,75,-99.99,,,-99.99,,2013-03-19 20:32:00,
2013-03-19 10:42:00,74.0,66.0,30.02,North,5,1.0,-999.0,75,-99.99,,,-99.99,,2013-03-19 20:42:00,
2013-03-19 10:52:00,73.0,65.0,30.02,NNE,31,1.0,-999.0,76,-99.99,,,-99.99,,2013-03-19 20:52:00,
2013-03-19 11:01:00,74.0,66.0,30.02,NE,44,2.0,-999.0,76,-99.99,,,-99.99,,2013-03-19 21:01:00,
2013-03-19 11:11:00,74.0,66.0,30.02,NE,44,2.0,-999.0,76,-99.99,,,-99.99,,2013-03-19 21:11:00,
2013-03-19 11:22:00,73.0,65.0,30.02,NNE,14,4.0,-999.0,77,-99.99,,,-99.99,,2013-03-19 21:22:00,
2013-03-19 11:32:00,72.0,65.0,30.01,North,9,3.0,-999.0,78,-99.99,,,-99.99,,2013-03-19 21:32:00,
2013-03-19 11:42:00,72.0,65.0,30.01,North,9,3.0,-999.0,78,-99.99,,,-99.99,,2013-03-19 21:42:00,
2013-03-19 11:53:00,73.0,66.0,30.01,East,84,2.0,-999.0,78,-99.99,,,-99.99,,2013-03-19 21:53:00,
2013-03-19 12:02:00,74.0,66.0,30.01,NW,324,1.0,-999.0,77,-99.99,,,-99.99,,2013-03-19 22:02:00,
2013-03-19 12:12:00,74.0,66.0,30.01,NW,324,1.0,-999.0,77,-99.99,,,-99.99,,2013-03-19 22:12:00,
2013-03-19 12:22:00,73.0,65.0,30.01,West,270,2.0,-999.0,75,-99.99,,,-99.99,,2013-03-19 22:22:00,
2013-03-19 12:32:00,73.0,65.0,30.01,West,270,2.0,-999.0,75,-99.99,,,-99.99,,2013-03-19 22:32:00,
2013-03-19 12:42:00,72.0,66.0,30.00,WNW,296,0.0,-999.0,82,-99.99,,,-99.99,,2013-03-19 22:42:00,
2013-03-19 12:53:00,72.0,66.0,30.00,WNW,296,0.0,-999.0,82,-99.99,,,-99.99,,2013-03-19 22:53:00,
2013-03-19 13:02:00,71.0,66.0,29.99,WSW,255,0.0,-999.0,83,-99.99,,,-99.99,,2013-03-19 23:02:00,
2013-03-19 13:12:00,71.0,66.0,29.99,WSW,255,0.0,-999.0,83,-99.99,,,-99.99,,2013-03-19 23:12:00,
2013-03-19 13:21:00,72.0,66.0,29.98,NW,304,0.0,-999.0,82,-99.99,,,-99.99,,2013-03-19 23:21:00,
2013-03-19 13:32:00,72.0,65.0,29.98,NE,42,2.0,-999.0,79,-99.99,,,-99.99,,2013-03-19 23:32:00,
2013-03-19 13:42:00,72.0,65.0,29.98,NE,42,2.0,-999.0,79,-99.99,,,-99.99,,2013-03-19 23:42:00,
2013-03-19 13:52:00,73.0,66.0,29.97,NNE,12,1.0,-999.0,80,-99.99,,,-99.99,,2013-03-19 23:52:00,
2013-03-19 14:02:00,73.0,66.0,29.97,NW,319,1.0,-999.0,79,-99.99,,,-99.99,,2013-03-20 00:02:00,
2013-03-19 14:12:00,73.0,66.0,29.97,NW,319,1.0,-999.0,79,-99.99,,,-99.99,,2013-03-20 00:12:00,
2013-03-19 14:22:00,72.0,65.0,29.96,NNW,344,2.0,-999.0,80,-99.99,,,-99.99,,2013-03-20 00:22:00,
2013-03-19 14:32:00,73.0,65.0,29.96,NE,55,1.0,-999.0,75,-99.99,,,-99.99,,2013-03-20 00:32:00,
2013-03-19 14:42:00,73.0,65.0,29.96,NE,55,1.0,-999.0,75,-99.99,,,-99.99,,2013-03-20 00:42:00,
2013-03-19 14:52:00,74.0,66.0,29.96,North,355,1.0,-999.0,77,-99.99,,,-99.99,,2013-03-20 00:52:00,
2013-03-19 15:01:00,71.0,66.0,29.96,NE,40,1.0,-999.0,85,-99.99,,,-99.99,,2013-03-20 01:01:00,
2013-03-19 15:11:00,71.0,66.0,29.96,NE,40,1.0,-999.0,85,-99.99,,,-99.99,,2013-03-20 01:11:00,
2013-03-19 15:22:00,71.0,67.0,29.96,North,360,2.0,-999.0,87,-99.99,,,-99.99,,2013-03-20 01:22:00,
2013-03-19 15:32:00,71.0,67.0,29.96,North,5,1.0,-999.0,88,-99.99,,,-99.99,,2013-03-20 01:32:00,
2013-03-19 15:42:00,71.0,67.0,29.96,North,5,1.0,-999.0,88,-99.99,,,-99.99,,2013-03-20 01:42:00,
2013-03-19 15:52:00,72.0,68.0,29.96,NW,315,0.0,-999.0,87,-99.99,,,-99.99,,2013-03-20 01:52:00,
2013-03-19 16:02:00,72.0,68.0,29.96,NW,315,0.0,-999.0,87,-99.99,,,-99.99,,2013-03-20 02:02:00,
2013-03-19 16:11:00,72.0,68.0,29.96,NW,315,0.0,-999.0,87,-99.99,,,-99.99,,2013-03-20 02:11:00,
2013-03-19 16:21:00,72.0,68.0,29.96,NW,326,0.0,-999.0,86,-99.99,,,-99.99,,2013-03-20 02:21:00,
2013-03-19 16:32:00,71.0,67.0,29.96,NNW,336,0.0,-999.0,86,-99.99,,,-99.99,,2013-03-20 02:32:00,
2013-03-19 16:43:00,71.0,67.0,29.96,NNW,336,0.0,-999.0,86,-99.99,,,-99.99,,2013-03-20 02:43:00,
2013-03-19 16:52:00,70.0,66.0,29.97,NNW,336,0.0,-999.0,88,-99.99,,,-99.99,,2013-03-20 02:52:00,
2013-03-19 17:01:00,70.0,66.0,29.97,NNW,336,0.0,-999.0,88,-99.99,,,-99.99,,2013-03-20 03:01:00,
2013-03-19 17:11:00,69.0,66.0,29.98,NNW,336,0.0,-999.0,89,-99.99,,,-99.99,,2013-03-20 03:11:00,
2013-03-19 17:22:00,69.0,66.0,29.98,NNW,336,0.0,-999.0,89,-99.99,,,-99.99,,2013-03-20 03:22:00,
2013-03-19 17:32:00,69.0,66.0,29.98,NNW,336,0.0,-999.0,90,-99.99,,,-99.99,,2013-03-20 03:32:00,
2013-03-19 17:42:00,69.0,66.0,29.98,NNW,336,0.0,-999.0,90,-99.99,,,-99.99,,2013-03-20 03:42:00,
2013-03-19 17:53:00,69.0,66.0,29.97,NNW,336,0.0,-999.0,90,-99.99,,,-99.99,,2013-03-20 03:53:00,
2013-03-19 18:02:00,69.0,66.0,29.98,NNW,336,0.0,-999.0,91,-99.99,,,-99.99,,2013-03-20 04:02:00,
2013-03-19 18:12:00,69.0,66.0,29.98,NNW,336,0.0,-999.0,91,-99.99,,,-99.99,,2013-03-20 04:12:00,
2013-03-19 18:22:00,68.0,65.0,29.98,NNW,336,0.0,-999.0,91,-99.99,,,-99.99,,2013-03-20 04:22:00,
2013-03-19 18:32:00,68.0,65.0,29.98,NNW,336,0.0,-999.0,91,-99.99,,,-99.99,,2013-03-20 04:32:00,
2013-03-19 18:42:00,68.0,65.0,29.98,NNW,336,0.0,-999.0,91,-99.99,,,-99.99,,2013-03-20 04:42:00,
2013-03-19 18:52:00,68.0,65.0,29.99,NNW,336,0.0,-999.0,91,-99.99,,,-99.99,,2013-03-20 04:52:00,
2013-03-19 19:02:00,68.0,65.0,29.99,NNW,336,0.0,-999.0,91,-99.99,,,-99.99,,2013-03-20 05:02:00,
2013-03-19 19:12:00,67.0,65.0,29.99,NNW,336,0.0,-999.0,92,-99.99,,,-99.99,,2013-03-20 05:12:00,
2013-03-19 19:22:00,67.0,65.0,29.99,NNW,336,0.0,-999.0,92,-99.99,,,-99.99,,2013-03-20 05:22:00,
2013-03-19 19:32:00,67.0,65.0,30.00,NNW,336,0.0,-999.0,92,-99.99,,,-99.99,,2013-03-20 05:32:00,
2013-03-19 19:42:00,67.0,65.0,30.00,NNW,336,0.0,-999.0,92,-99.99,,,-99.99,,2013-03-20 05:42:00,
2013-03-19 19:52:00,67.0,65.0,30.00,NNW,336,0.0,-999.0,92,-99.99,,,-99.99,,2013-03-20 05:52:00,
2013-03-19 20:02:00,67.0,65.0,30.02,NNW,336,0.0,-999.0,92,-99.99,,,-99.99,,2013-03-20 06:02:00,
2013-03-19 20:12:00,67.0,65.0,30.02,NNW,336,0.0,-999.0,92,-99.99,,,-99.99,,2013-03-20 06:12:00,
2013-03-19 20:22:00,67.0,65.0,30.03,NNW,336,0.0,-999.0,93,-99.99,,,-99.99,,2013-03-20 06:22:00,
2013-03-19 20:32:00,67.0,65.0,30.03,NNW,336,0.0,-999.0,93,-99.99,,,-99.99,,2013-03-20 06:32:00,
2013-03-19 20:42:00,67.0,65.0,30.03,NNW,336,0.0,-999.0,93,-99.99,,,-99.99,,2013-03-20 06:42:00,
2013-03-19 20:52:00,67.0,65.0,30.03,NNW,336,0.0,-999.0,93,-99.99,,,-99.99,,2013-03-20 06:52:00,
2013-03-19 21:02:00,66.0,64.0,30.04,NNW,336,0.0,-999.0,93,-99.99,,,-99.99,,2013-03-20 07:02:00,
2013-03-19 21:11:00,66.0,64.0,30.04,NNW,336,0.0,-999.0,93,-99.99,,,-99.99,,2013-03-20 07:11:00,
2013-03-19 21:21:00,66.0,64.0,30.04,NNW,336,0.0,-999.0,93,-99.99,,,-99.99,,2013-03-20 07:21:00,
2013-03-19 21:31:00,66.0,64.0,30.04,NNW,336,0.0,-999.0,93,-99.99,,,-99.99,,2013-03-20 07:31:00,
2013-03-19 21:41:00,66.0,64.0,30.04,NNW,336,0.0,-999.0,93,-99.99,,,-99.99,,2013-03-20 07:41:00,
2013-03-19 21:52:00,65.0,63.0,30.05,NNW,336,0.0,-999.0,93,-99.99,,,-99.99,,2013-03-20 07:52:00,
2013-03-19 22:01:00,65.0,63.0,30.05,NNW,336,0.0,-999.0,93,-99.99,,,-99.99,,2013-03-20 08:01:00,
2013-03-19 22:11:00,65.0,63.0,30.05,NNW,336,0.0,-999.0,93,-99.99,,,-99.99,,2013-03-20 08:11:00,
2013-03-19 22:21:00,64.0,62.0,30.05,NNW,336,0.0,-999.0,93,-99.99,,,-99.99,,2013-03-20 08:21:00,
2013-03-19 22:32:00,64.0,62.0,30.05,NNW,336,0.0,-999.0,93,-99.99,,,-99.99,,2013-03-20 08:32:00,
2013-03-19 22:42:00,64.0,62.0,30.05,NNW,336,0.0,-999.0,93,-99.99,,,-99.99,,2013-03-20 08:42:00,
2013-03-19 22:52:00,63.0,61.0,30.05,NNW,336,0.0,-999.0,93,-99.99,,,-99.99,,2013-03-20 08:52:00,
2013-03-19 23:01:00,63.0,61.0,30.05,NNW,336,0.0,-999.0,93,-99.99,,,-99.99,,2013-03-20 09:01:00,
2013-03-19 23:11:00,63.0,61.0,30.05,NNW,336,0.0,-999.0,93,-99.99,,,-99.99,,2013-03-20 09:11:00,
2013-03-19 23:22:00,63.0,61.0,30.05,NNW,336,0.0,-999.0,94,-99.99,,,-99.99,,2013-03-20 09:22:00,
2013-03-19 23:32:00,62.0,60.0,30.04,NNW,336,0.0,-999.0,93,-99.99,,,-99.99,,2013-03-20 09:32:00,
2013-03-19 23:42:00,62.0,60.0,30.04,NNW,336,0.0,-999.0,93,-99.99,,,-99.99,,2013-03-20 09:42:00,
2013-03-19 23:53:00,62.0,60.0,30.04,NNW,336,0.0,-999.0,94,-99.99,,,-99.99,,2013-03-20 09:53:00,